sensor_id;sensor_type;location;lat;lon;timestamp;pressure;altitude;pressure_sealevel;temperature;humidity
37856;BME280;23694;43.274;26.924;2023-05-08T00:02:07;99157.94;;;12.07;48.25
37856;BME280;23694;43.274;26.924;2023-05-08T00:04:33;99161.44;;;11.95;48.60
37856;BME280;23694;43.274;26.924;2023-05-08T00:06:59;99169.09;;;11.98;48.32
37856;BME280;23694;43.274;26.924;2023-05-08T00:09:25;99173.44;;;11.87;48.54
37856;BME280;23694;43.274;26.924;2023-05-08T00:11:51;99179.00;;;11.95;48.54
37856;BME280;23694;43.274;26.924;2023-05-08T00:14:17;99182.97;;;11.75;49.29
37856;BME280;23694;43.274;26.924;2023-05-08T00:16:43;99174.72;;;11.81;49.25
37856;BME280;23694;43.274;26.924;2023-05-08T00:19:09;99174.38;;;11.86;49.46
37856;BME280;23694;43.274;26.924;2023-05-08T00:21:36;99175.00;;;11.89;49.57
37856;BME280;23694;43.274;26.924;2023-05-08T00:24:02;99179.19;;;11.92;49.31
37856;BME280;23694;43.274;26.924;2023-05-08T00:26:28;99185.19;;;11.94;50.05
37856;BME280;23694;43.274;26.924;2023-05-08T00:28:54;99182.66;;;11.92;52.35
37856;BME280;23694;43.274;26.924;2023-05-08T00:31:20;99185.25;;;12.05;53.62
37856;BME280;23694;43.274;26.924;2023-05-08T00:33:46;99185.78;;;12.10;54.68
37856;BME280;23694;43.274;26.924;2023-05-08T00:36:12;99177.91;;;12.10;53.87
37856;BME280;23694;43.274;26.924;2023-05-08T00:38:40;99168.88;;;12.01;53.39
37856;BME280;23694;43.274;26.924;2023-05-08T00:41:06;99173.84;;;11.93;51.54
37856;BME280;23694;43.274;26.924;2023-05-08T00:43:33;99174.91;;;11.91;50.70
37856;BME280;23694;43.274;26.924;2023-05-08T00:46:00;99176.78;;;11.89;51.08
37856;BME280;23694;43.274;26.924;2023-05-08T00:48:31;99166.84;;;11.81;51.60
37856;BME280;23694;43.274;26.924;2023-05-08T00:50:59;99162.31;;;11.70;51.86
37856;BME280;23694;43.274;26.924;2023-05-08T00:53:28;99161.75;;;11.65;51.98
37856;BME280;23694;43.274;26.924;2023-05-08T00:55:56;99167.00;;;11.65;52.11
37856;BME280;23694;43.274;26.924;2023-05-08T00:58:25;99162.59;;;11.53;52.46
37856;BME280;23694;43.274;26.924;2023-05-08T01:00:52;99160.91;;;11.52;53.14
37856;BME280;23694;43.274;26.924;2023-05-08T01:03:21;99156.81;;;11.48;53.15
37856;BME280;23694;43.274;26.924;2023-05-08T01:05:48;99153.56;;;11.44;53.43
37856;BME280;23694;43.274;26.924;2023-05-08T01:08:14;99155.56;;;11.28;54.01
37856;BME280;23694;43.274;26.924;2023-05-08T01:10:50;99151.25;;;11.27;54.06
37856;BME280;23694;43.274;26.924;2023-05-08T01:13:31;99148.31;;;11.19;54.20
37856;BME280;23694;43.274;26.924;2023-05-08T01:16:16;99147.28;;;11.22;54.40
37856;BME280;23694;43.274;26.924;2023-05-08T01:19:24;99148.75;;;11.13;54.60
37856;BME280;23694;43.274;26.924;2023-05-08T01:25:27;99153.72;;;11.03;55.17
37856;BME280;23694;43.274;26.924;2023-05-08T01:30:10;99154.53;;;10.91;55.59
37856;BME280;23694;43.274;26.924;2023-05-08T01:32:54;99151.81;;;10.80;56.33
37856;BME280;23694;43.274;26.924;2023-05-08T01:35:38;99151.50;;;10.85;56.25
37856;BME280;23694;43.274;26.924;2023-05-08T01:38:15;99149.69;;;10.72;57.06
37856;BME280;23694;43.274;26.924;2023-05-08T01:40:53;99144.56;;;10.84;56.75
37856;BME280;23694;43.274;26.924;2023-05-08T01:43:42;99144.78;;;10.80;56.88
37856;BME280;23694;43.274;26.924;2023-05-08T01:46:13;99140.50;;;10.92;56.37
37856;BME280;23694;43.274;26.924;2023-05-08T01:48:43;99147.09;;;10.85;56.54
37856;BME280;23694;43.274;26.924;2023-05-08T01:51:17;99130.31;;;10.75;56.90
37856;BME280;23694;43.274;26.924;2023-05-08T01:53:44;99139.47;;;10.95;56.35
37856;BME280;23694;43.274;26.924;2023-05-08T01:56:15;99134.75;;;11.00;56.19
37856;BME280;23694;43.274;26.924;2023-05-08T01:58:43;99133.81;;;11.01;55.99
37856;BME280;23694;43.274;26.924;2023-05-08T02:01:10;99126.03;;;10.99;55.67
37856;BME280;23694;43.274;26.924;2023-05-08T02:03:38;99126.78;;;11.01;55.63
37856;BME280;23694;43.274;26.924;2023-05-08T02:06:09;99128.28;;;11.05;55.18
37856;BME280;23694;43.274;26.924;2023-05-08T02:08:37;99114.81;;;10.97;54.88
37856;BME280;23694;43.274;26.924;2023-05-08T02:11:04;99120.50;;;11.04;54.88
37856;BME280;23694;43.274;26.924;2023-05-08T02:13:32;99115.47;;;11.01;55.00
37856;BME280;23694;43.274;26.924;2023-05-08T02:16:00;99107.91;;;10.96;54.77
37856;BME280;23694;43.274;26.924;2023-05-08T02:18:28;99115.44;;;10.88;55.67
37856;BME280;23694;43.274;26.924;2023-05-08T02:20:58;99113.16;;;10.96;55.18
37856;BME280;23694;43.274;26.924;2023-05-08T02:23:27;99120.69;;;11.01;54.98
37856;BME280;23694;43.274;26.924;2023-05-08T02:25:54;99115.03;;;10.94;55.84
37856;BME280;23694;43.274;26.924;2023-05-08T02:28:22;99115.34;;;11.02;55.83
37856;BME280;23694;43.274;26.924;2023-05-08T02:30:50;99113.69;;;11.01;55.65
37856;BME280;23694;43.274;26.924;2023-05-08T02:33:18;99111.69;;;11.05;55.02
37856;BME280;23694;43.274;26.924;2023-05-08T02:35:46;99117.59;;;11.08;55.13
37856;BME280;23694;43.274;26.924;2023-05-08T02:38:16;99114.56;;;11.15;54.54
37856;BME280;23694;43.274;26.924;2023-05-08T02:40:47;99115.72;;;11.10;54.94
37856;BME280;23694;43.274;26.924;2023-05-08T02:43:14;99115.41;;;11.15;55.16
37856;BME280;23694;43.274;26.924;2023-05-08T02:45:47;99114.34;;;11.18;55.46
37856;BME280;23694;43.274;26.924;2023-05-08T02:53:19;99122.53;;;11.26;54.60
37856;BME280;23694;43.274;26.924;2023-05-08T02:55:56;99125.78;;;11.29;54.52
37856;BME280;23694;43.274;26.924;2023-05-08T02:58:45;99121.28;;;11.31;54.31
37856;BME280;23694;43.274;26.924;2023-05-08T03:03:46;99124.63;;;11.33;55.36
37856;BME280;23694;43.274;26.924;2023-05-08T03:06:20;99120.75;;;11.26;55.54
37856;BME280;23694;43.274;26.924;2023-05-08T03:08:50;99123.47;;;11.25;56.11
37856;BME280;23694;43.274;26.924;2023-05-08T03:11:21;99116.66;;;11.22;56.31
37856;BME280;23694;43.274;26.924;2023-05-08T03:13:50;99120.00;;;11.11;56.61
37856;BME280;23694;43.274;26.924;2023-05-08T03:16:22;99114.66;;;11.13;56.88
37856;BME280;23694;43.274;26.924;2023-05-08T03:18:52;99122.22;;;11.18;57.20
37856;BME280;23694;43.274;26.924;2023-05-08T03:21:20;99112.97;;;11.37;56.75
37856;BME280;23694;43.274;26.924;2023-05-08T03:23:50;99113.69;;;11.52;58.55
37856;BME280;23694;43.274;26.924;2023-05-08T03:26:18;99130.19;;;11.80;58.41
37856;BME280;23694;43.274;26.924;2023-05-08T03:28:47;99126.44;;;12.07;56.24
37856;BME280;23694;43.274;26.924;2023-05-08T03:31:18;99129.09;;;12.31;54.46
37856;BME280;23694;43.274;26.924;2023-05-08T03:33:50;99125.44;;;12.58;54.76
37856;BME280;23694;43.274;26.924;2023-05-08T03:36:17;99131.09;;;12.76;54.22
37856;BME280;23694;43.274;26.924;2023-05-08T03:38:44;99125.97;;;13.09;53.62
37856;BME280;23694;43.274;26.924;2023-05-08T03:41:11;99127.75;;;13.55;52.75
37856;BME280;23694;43.274;26.924;2023-05-08T03:43:38;99123.44;;;13.65;51.59
37856;BME280;23694;43.274;26.924;2023-05-08T03:46:04;99122.16;;;13.71;51.97
37856;BME280;23694;43.274;26.924;2023-05-08T03:48:35;99128.38;;;13.70;51.25
37856;BME280;23694;43.274;26.924;2023-05-08T03:51:02;99134.91;;;13.64;51.11
37856;BME280;23694;43.274;26.924;2023-05-08T03:53:29;99133.13;;;13.53;52.33
37856;BME280;23694;43.274;26.924;2023-05-08T03:55:56;99134.56;;;13.46;52.24
37856;BME280;23694;43.274;26.924;2023-05-08T04:01:57;99127.72;;;13.32;52.31
37856;BME280;23694;43.274;26.924;2023-05-08T04:04:44;99131.16;;;13.22;52.47
37856;BME280;23694;43.274;26.924;2023-05-08T04:07:42;99135.81;;;13.18;53.63
37856;BME280;23694;43.274;26.924;2023-05-08T04:10:33;99126.47;;;13.14;53.52
37856;BME280;23694;43.274;26.924;2023-05-08T04:13:17;99130.22;;;13.23;53.10
37856;BME280;23694;43.274;26.924;2023-05-08T04:15:51;99132.16;;;13.32;52.70
37856;BME280;23694;43.274;26.924;2023-05-08T04:18:23;99131.19;;;13.44;52.32
37856;BME280;23694;43.274;26.924;2023-05-08T04:20:53;99136.00;;;13.50;52.47
37856;BME280;23694;43.274;26.924;2023-05-08T04:23:22;99131.81;;;13.48;52.54
37856;BME280;23694;43.274;26.924;2023-05-08T04:25:50;99131.22;;;13.55;52.26
37856;BME280;23694;43.274;26.924;2023-05-08T04:28:18;99140.19;;;13.64;53.14
37856;BME280;23694;43.274;26.924;2023-05-08T04:30:44;99136.25;;;13.70;52.22
37856;BME280;23694;43.274;26.924;2023-05-08T04:33:11;99144.63;;;13.75;52.34
37856;BME280;23694;43.274;26.924;2023-05-08T04:35:38;99141.41;;;13.82;51.81
37856;BME280;23694;43.274;26.924;2023-05-08T04:38:05;99145.34;;;13.88;52.07
37856;BME280;23694;43.274;26.924;2023-05-08T04:40:31;99146.19;;;13.88;52.18
37856;BME280;23694;43.274;26.924;2023-05-08T04:42:57;99148.22;;;13.85;52.28
37856;BME280;23694;43.274;26.924;2023-05-08T04:45:23;99135.19;;;13.83;52.19
37856;BME280;23694;43.274;26.924;2023-05-08T04:47:49;99138.03;;;13.91;52.40
37856;BME280;23694;43.274;26.924;2023-05-08T04:50:15;99135.66;;;13.88;52.13
37856;BME280;23694;43.274;26.924;2023-05-08T04:52:41;99138.16;;;14.01;51.89
37856;BME280;23694;43.274;26.924;2023-05-08T04:55:08;99131.94;;;13.80;52.07
37856;BME280;23694;43.274;26.924;2023-05-08T04:57:34;99133.63;;;13.70;52.69
37856;BME280;23694;43.274;26.924;2023-05-08T05:00:00;99129.56;;;13.66;53.40
37856;BME280;23694;43.274;26.924;2023-05-08T05:02:27;99131.81;;;13.48;53.36
37856;BME280;23694;43.274;26.924;2023-05-08T05:04:53;99134.47;;;13.70;53.44
37856;BME280;23694;43.274;26.924;2023-05-08T05:07:19;99122.25;;;13.91;52.88
37856;BME280;23694;43.274;26.924;2023-05-08T05:09:45;99132.63;;;14.15;53.07
37856;BME280;23694;43.274;26.924;2023-05-08T05:12:11;99140.03;;;14.44;51.61
37856;BME280;23694;43.274;26.924;2023-05-08T05:14:37;99128.53;;;14.77;49.70
37856;BME280;23694;43.274;26.924;2023-05-08T05:17:03;99137.66;;;15.05;49.83
37856;BME280;23694;43.274;26.924;2023-05-08T05:19:29;99137.44;;;15.17;50.61
37856;BME280;23694;43.274;26.924;2023-05-08T05:21:55;99139.50;;;15.14;51.48
37856;BME280;23694;43.274;26.924;2023-05-08T05:24:21;99148.25;;;15.14;50.73
37856;BME280;23694;43.274;26.924;2023-05-08T05:26:47;99152.84;;;15.12;50.04
37856;BME280;23694;43.274;26.924;2023-05-08T05:29:13;99147.56;;;15.12;49.09
37856;BME280;23694;43.274;26.924;2023-05-08T05:31:39;99136.56;;;15.07;47.60
37856;BME280;23694;43.274;26.924;2023-05-08T05:34:05;99144.28;;;14.99;50.94
37856;BME280;23694;43.274;26.924;2023-05-08T05:36:31;99131.69;;;14.91;50.80
37856;BME280;23694;43.274;26.924;2023-05-08T05:38:57;99133.41;;;14.81;49.66
37856;BME280;23694;43.274;26.924;2023-05-08T05:41:23;99136.47;;;14.98;51.46
37856;BME280;23694;43.274;26.924;2023-05-08T05:43:49;99120.78;;;15.17;47.40
37856;BME280;23694;43.274;26.924;2023-05-08T05:46:15;99120.19;;;15.34;48.41
37856;BME280;23694;43.274;26.924;2023-05-08T05:48:42;99123.09;;;15.31;48.19
37856;BME280;23694;43.274;26.924;2023-05-08T05:51:08;99122.53;;;15.07;48.13
37856;BME280;23694;43.274;26.924;2023-05-08T05:53:34;99118.72;;;15.00;47.63
37856;BME280;23694;43.274;26.924;2023-05-08T05:56:00;99122.84;;;15.13;47.65
37856;BME280;23694;43.274;26.924;2023-05-08T05:58:26;99114.06;;;14.92;48.39
37856;BME280;23694;43.274;26.924;2023-05-08T06:00:53;99115.00;;;15.02;48.82
37856;BME280;23694;43.274;26.924;2023-05-08T06:03:19;99123.75;;;15.23;48.09
37856;BME280;23694;43.274;26.924;2023-05-08T06:05:46;99126.06;;;15.17;49.97
37856;BME280;23694;43.274;26.924;2023-05-08T06:08:12;99124.88;;;15.31;51.60
37856;BME280;23694;43.274;26.924;2023-05-08T06:10:38;99122.34;;;15.50;51.25
37856;BME280;23694;43.274;26.924;2023-05-08T06:13:04;99127.63;;;15.50;51.16
37856;BME280;23694;43.274;26.924;2023-05-08T06:15:31;99126.06;;;15.17;50.03
37856;BME280;23694;43.274;26.924;2023-05-08T06:17:57;99122.13;;;15.11;51.07
37856;BME280;23694;43.274;26.924;2023-05-08T06:20:23;99117.06;;;15.19;51.80
37856;BME280;23694;43.274;26.924;2023-05-08T06:22:49;99119.34;;;15.34;52.00
37856;BME280;23694;43.274;26.924;2023-05-08T06:25:15;99117.50;;;15.25;50.65
37856;BME280;23694;43.274;26.924;2023-05-08T06:27:42;99111.78;;;15.19;50.94
37856;BME280;23694;43.274;26.924;2023-05-08T06:30:08;99119.72;;;15.50;48.52
37856;BME280;23694;43.274;26.924;2023-05-08T06:32:35;99113.91;;;15.56;49.29
37856;BME280;23694;43.274;26.924;2023-05-08T06:35:01;99122.00;;;15.85;48.32
37856;BME280;23694;43.274;26.924;2023-05-08T06:37:29;99124.78;;;15.83;46.64
37856;BME280;23694;43.274;26.924;2023-05-08T06:39:55;99116.22;;;16.01;47.29
37856;BME280;23694;43.274;26.924;2023-05-08T06:42:21;99119.56;;;16.12;45.09
37856;BME280;23694;43.274;26.924;2023-05-08T06:44:47;99123.63;;;16.16;44.50
37856;BME280;23694;43.274;26.924;2023-05-08T06:47:15;99115.84;;;16.25;44.61
37856;BME280;23694;43.274;26.924;2023-05-08T06:49:41;99109.63;;;16.55;45.53
37856;BME280;23694;43.274;26.924;2023-05-08T06:52:07;99113.25;;;16.44;46.18
37856;BME280;23694;43.274;26.924;2023-05-08T06:54:33;99104.94;;;16.68;44.85
37856;BME280;23694;43.274;26.924;2023-05-08T06:56:59;99110.22;;;17.06;41.85
37856;BME280;23694;43.274;26.924;2023-05-08T06:59:25;99114.84;;;16.95;41.77
37856;BME280;23694;43.274;26.924;2023-05-08T07:01:51;99121.63;;;16.78;41.68
37856;BME280;23694;43.274;26.924;2023-05-08T07:04:17;99121.63;;;16.88;41.79
37856;BME280;23694;43.274;26.924;2023-05-08T07:06:44;99109.00;;;16.91;42.19
37856;BME280;23694;43.274;26.924;2023-05-08T07:09:10;99116.44;;;17.25;40.96
37856;BME280;23694;43.274;26.924;2023-05-08T07:11:36;99120.88;;;17.43;41.02
37856;BME280;23694;43.274;26.924;2023-05-08T07:14:02;99120.97;;;17.61;40.28
37856;BME280;23694;43.274;26.924;2023-05-08T07:16:29;99114.78;;;17.80;40.10
37856;BME280;23694;43.274;26.924;2023-05-08T07:18:55;99112.00;;;16.58;42.59
37856;BME280;23694;43.274;26.924;2023-05-08T07:21:21;99101.56;;;17.14;40.95
37856;BME280;23694;43.274;26.924;2023-05-08T07:23:47;99107.66;;;17.34;39.69
37856;BME280;23694;43.274;26.924;2023-05-08T07:26:16;99100.84;;;17.31;40.44
37856;BME280;23694;43.274;26.924;2023-05-08T07:28:43;99103.56;;;16.93;41.24
37856;BME280;23694;43.274;26.924;2023-05-08T07:31:09;99096.28;;;17.14;40.39
37856;BME280;23694;43.274;26.924;2023-05-08T07:33:35;99100.34;;;16.89;41.62
37856;BME280;23694;43.274;26.924;2023-05-08T07:36:01;99096.78;;;17.37;41.49
37856;BME280;23694;43.274;26.924;2023-05-08T07:38:27;99094.72;;;17.21;41.81
37856;BME280;23694;43.274;26.924;2023-05-08T07:40:53;99100.00;;;17.31;41.43
37856;BME280;23694;43.274;26.924;2023-05-08T07:43:22;99096.88;;;16.98;39.88
37856;BME280;23694;43.274;26.924;2023-05-08T07:45:49;99083.63;;;16.89;41.68
37856;BME280;23694;43.274;26.924;2023-05-08T07:48:15;99083.75;;;17.53;40.72
37856;BME280;23694;43.274;26.924;2023-05-08T07:50:41;99087.03;;;17.37;41.01
37856;BME280;23694;43.274;26.924;2023-05-08T07:53:07;99080.22;;;17.25;39.63
37856;BME280;23694;43.274;26.924;2023-05-08T07:55:33;99080.56;;;16.74;39.78
37856;BME280;23694;43.274;26.924;2023-05-08T07:57:59;99090.56;;;16.51;41.24
37856;BME280;23694;43.274;26.924;2023-05-08T08:00:25;99084.75;;;16.96;41.29
37856;BME280;23694;43.274;26.924;2023-05-08T08:02:54;99076.09;;;16.84;42.58
37856;BME280;23694;43.274;26.924;2023-05-08T08:05:20;99082.38;;;17.02;43.06
37856;BME280;23694;43.274;26.924;2023-05-08T08:07:46;99082.47;;;17.20;41.98
37856;BME280;23694;43.274;26.924;2023-05-08T08:10:13;99076.91;;;17.60;41.22
37856;BME280;23694;43.274;26.924;2023-05-08T08:12:39;99079.41;;;17.71;40.78
37856;BME280;23694;43.274;26.924;2023-05-08T08:15:05;99075.94;;;17.61;41.28
37856;BME280;23694;43.274;26.924;2023-05-08T08:17:31;99063.25;;;17.92;40.71
37856;BME280;23694;43.274;26.924;2023-05-08T08:19:57;99075.91;;;18.26;39.86
37856;BME280;23694;43.274;26.924;2023-05-08T08:22:25;99075.78;;;18.18;40.12
37856;BME280;23694;43.274;26.924;2023-05-08T08:24:54;99071.09;;;17.57;40.80
37856;BME280;23694;43.274;26.924;2023-05-08T08:27:20;99065.66;;;17.86;40.00
37856;BME280;23694;43.274;26.924;2023-05-08T08:29:46;99055.22;;;17.47;40.58
37856;BME280;23694;43.274;26.924;2023-05-08T08:32:13;99062.53;;;17.72;40.09
37856;BME280;23694;43.274;26.924;2023-05-08T08:34:39;99062.09;;;17.77;41.30
37856;BME280;23694;43.274;26.924;2023-05-08T08:37:05;99056.34;;;17.82;40.83
37856;BME280;23694;43.274;26.924;2023-05-08T08:39:32;99045.47;;;18.02;40.36
37856;BME280;23694;43.274;26.924;2023-05-08T08:41:59;99034.16;;;18.28;40.21
37856;BME280;23694;43.274;26.924;2023-05-08T08:44:25;99046.81;;;18.34;40.25
37856;BME280;23694;43.274;26.924;2023-05-08T08:46:52;99043.09;;;18.80;38.14
37856;BME280;23694;43.274;26.924;2023-05-08T08:49:29;99042.03;;;18.37;39.08
37856;BME280;23694;43.274;26.924;2023-05-08T08:52:06;99049.25;;;18.00;39.81
37856;BME280;23694;43.274;26.924;2023-05-08T08:54:36;99047.19;;;18.75;38.59
37856;BME280;23694;43.274;26.924;2023-05-08T08:57:05;99052.91;;;18.17;38.62
37856;BME280;23694;43.274;26.924;2023-05-08T08:59:37;99050.06;;;17.83;40.12
37856;BME280;23694;43.274;26.924;2023-05-08T09:02:10;99048.72;;;18.42;38.51
37856;BME280;23694;43.274;26.924;2023-05-08T09:04:37;99046.44;;;18.64;37.54
37856;BME280;23694;43.274;26.924;2023-05-08T09:07:03;99050.59;;;18.85;37.04
37856;BME280;23694;43.274;26.924;2023-05-08T09:09:34;99049.28;;;19.07;36.13
37856;BME280;23694;43.274;26.924;2023-05-08T09:12:02;99045.28;;;18.85;35.67
37856;BME280;23694;43.274;26.924;2023-05-08T09:14:28;99044.78;;;19.07;35.60
37856;BME280;23694;43.274;26.924;2023-05-08T09:16:54;99040.94;;;19.53;35.05
37856;BME280;23694;43.274;26.924;2023-05-08T09:19:22;99040.91;;;19.87;34.79
37856;BME280;23694;43.274;26.924;2023-05-08T09:21:48;99045.00;;;19.66;34.65
37856;BME280;23694;43.274;26.924;2023-05-08T09:24:14;99035.78;;;20.02;34.32
37856;BME280;23694;43.274;26.924;2023-05-08T09:26:40;99031.66;;;19.57;34.79
37856;BME280;23694;43.274;26.924;2023-05-08T09:29:14;99047.47;;;19.67;34.68
37856;BME280;23694;43.274;26.924;2023-05-08T09:31:42;99032.75;;;19.21;35.24
37856;BME280;23694;43.274;26.924;2023-05-08T09:34:10;99033.84;;;19.62;35.41
37856;BME280;23694;43.274;26.924;2023-05-08T09:36:36;99027.69;;;19.36;35.40
37856;BME280;23694;43.274;26.924;2023-05-08T09:39:09;99028.38;;;19.63;35.44
37856;BME280;23694;43.274;26.924;2023-05-08T09:41:36;99025.38;;;19.41;36.21
37856;BME280;23694;43.274;26.924;2023-05-08T09:44:03;99016.78;;;19.73;35.91
37856;BME280;23694;43.274;26.924;2023-05-08T09:46:30;99022.47;;;19.86;36.02
37856;BME280;23694;43.274;26.924;2023-05-08T09:48:59;99020.50;;;20.04;35.56
37856;BME280;23694;43.274;26.924;2023-05-08T09:51:29;99026.31;;;19.91;35.83
37856;BME280;23694;43.274;26.924;2023-05-08T09:53:57;99042.09;;;20.01;35.80
37856;BME280;23694;43.274;26.924;2023-05-08T09:56:37;99030.09;;;19.81;36.00
37856;BME280;23694;43.274;26.924;2023-05-08T09:59:05;99016.19;;;20.03;35.71
37856;BME280;23694;43.274;26.924;2023-05-08T10:01:47;99012.19;;;19.91;35.86
37856;BME280;23694;43.274;26.924;2023-05-08T10:04:15;99015.88;;;19.56;36.42
37856;BME280;23694;43.274;26.924;2023-05-08T10:06:42;99019.94;;;19.76;36.14
37856;BME280;23694;43.274;26.924;2023-05-08T10:09:12;99019.81;;;19.94;35.76
37856;BME280;23694;43.274;26.924;2023-05-08T10:11:39;99019.16;;;19.92;35.97
37856;BME280;23694;43.274;26.924;2023-05-08T10:14:06;99001.91;;;20.04;35.51
37856;BME280;23694;43.274;26.924;2023-05-08T10:16:41;99004.09;;;19.32;36.98
37856;BME280;23694;43.274;26.924;2023-05-08T10:19:12;99000.19;;;19.79;35.93
37856;BME280;23694;43.274;26.924;2023-05-08T10:21:41;99000.84;;;19.81;36.21
37856;BME280;23694;43.274;26.924;2023-05-08T10:24:15;98991.28;;;20.12;34.99
37856;BME280;23694;43.274;26.924;2023-05-08T10:26:49;98992.41;;;19.85;35.95
37856;BME280;23694;43.274;26.924;2023-05-08T10:32:09;98995.81;;;20.36;35.39
37856;BME280;23694;43.274;26.924;2023-05-08T10:34:39;98996.47;;;20.38;35.19
37856;BME280;23694;43.274;26.924;2023-05-08T10:37:09;98984.69;;;20.89;34.41
37856;BME280;23694;43.274;26.924;2023-05-08T10:39:36;98993.94;;;20.12;35.39
37856;BME280;23694;43.274;26.924;2023-05-08T10:42:03;98983.09;;;19.89;35.38
37856;BME280;23694;43.274;26.924;2023-05-08T10:44:30;98976.34;;;20.36;34.58
37856;BME280;23694;43.274;26.924;2023-05-08T10:47:02;98976.53;;;20.26;34.93
37856;BME280;23694;43.274;26.924;2023-05-08T10:49:54;98981.09;;;19.91;35.44
37856;BME280;23694;43.274;26.924;2023-05-08T10:52:41;98974.78;;;19.84;35.90
37856;BME280;23694;43.274;26.924;2023-05-08T10:55:18;98977.88;;;20.54;34.84
37856;BME280;23694;43.274;26.924;2023-05-08T10:58:10;98970.88;;;20.62;34.26
37856;BME280;23694;43.274;26.924;2023-05-08T11:03:21;98984.00;;;20.31;34.51
37856;BME280;23694;43.274;26.924;2023-05-08T11:05:50;98965.75;;;20.52;34.84
37856;BME280;23694;43.274;26.924;2023-05-08T11:08:17;98975.88;;;20.40;34.66
37856;BME280;23694;43.274;26.924;2023-05-08T11:13:33;98948.44;;;20.56;35.25
37856;BME280;23694;43.274;26.924;2023-05-08T11:16:00;98957.94;;;20.50;35.09
37856;BME280;23694;43.274;26.924;2023-05-08T11:18:27;98969.88;;;20.79;35.08
37856;BME280;23694;43.274;26.924;2023-05-08T11:21:02;98965.16;;;21.05;34.78
37856;BME280;23694;43.274;26.924;2023-05-08T11:23:32;98963.75;;;20.54;35.58
37856;BME280;23694;43.274;26.924;2023-05-08T11:26:04;98974.94;;;19.83;36.70
37856;BME280;23694;43.274;26.924;2023-05-08T11:28:54;98967.34;;;20.04;36.55
37856;BME280;23694;43.274;26.924;2023-05-08T11:31:21;98974.72;;;20.59;35.84
37856;BME280;23694;43.274;26.924;2023-05-08T11:33:48;98977.34;;;20.26;36.30
37856;BME280;23694;43.274;26.924;2023-05-08T11:36:16;98976.84;;;20.80;39.22
37856;BME280;23694;43.274;26.924;2023-05-08T11:39:08;98971.50;;;21.04;37.46
37856;BME280;23694;43.274;26.924;2023-05-08T11:41:38;98980.81;;;21.08;38.96
37856;BME280;23694;43.274;26.924;2023-05-08T11:49:15;98971.69;;;20.95;39.54
37856;BME280;23694;43.274;26.924;2023-05-08T11:51:45;98977.19;;;20.85;40.37
37856;BME280;23694;43.274;26.924;2023-05-08T11:54:13;98976.69;;;20.89;40.31
37856;BME280;23694;43.274;26.924;2023-05-08T11:56:39;98983.34;;;20.94;40.41
37856;BME280;23694;43.274;26.924;2023-05-08T11:59:06;98970.88;;;20.70;40.59
37856;BME280;23694;43.274;26.924;2023-05-08T12:01:34;98968.22;;;20.70;40.13
37856;BME280;23694;43.274;26.924;2023-05-08T12:04:04;98975.03;;;20.23;41.59
37856;BME280;23694;43.274;26.924;2023-05-08T12:06:32;98973.88;;;20.18;42.10
37856;BME280;23694;43.274;26.924;2023-05-08T12:08:59;98981.13;;;20.08;42.96
37856;BME280;23694;43.274;26.924;2023-05-08T12:11:26;98969.44;;;19.42;43.78
37856;BME280;23694;43.274;26.924;2023-05-08T12:13:53;98975.72;;;19.59;43.94
37856;BME280;23694;43.274;26.924;2023-05-08T12:16:21;98970.06;;;19.54;44.57
37856;BME280;23694;43.274;26.924;2023-05-08T12:18:51;98991.16;;;19.55;44.46
37856;BME280;23694;43.274;26.924;2023-05-08T12:21:18;98991.88;;;19.48;44.18
37856;BME280;23694;43.274;26.924;2023-05-08T12:23:46;98993.34;;;19.42;44.93
37856;BME280;23694;43.274;26.924;2023-05-08T12:26:12;98986.34;;;19.33;45.58
37856;BME280;23694;43.274;26.924;2023-05-08T12:28:38;98991.69;;;19.41;45.01
37856;BME280;23694;43.274;26.924;2023-05-08T12:31:05;98974.56;;;19.36;44.77
37856;BME280;23694;43.274;26.924;2023-05-08T12:33:33;99001.13;;;19.61;44.88
37856;BME280;23694;43.274;26.924;2023-05-08T12:36:00;98995.16;;;19.68;44.02
37856;BME280;23694;43.274;26.924;2023-05-08T12:38:27;98989.19;;;19.66;45.16
37856;BME280;23694;43.274;26.924;2023-05-08T12:40:53;98997.44;;;19.54;45.24
37856;BME280;23694;43.274;26.924;2023-05-08T12:43:35;99007.09;;;19.29;45.49
37856;BME280;23694;43.274;26.924;2023-05-08T12:46:02;98989.50;;;18.77;47.07
37856;BME280;23694;43.274;26.924;2023-05-08T12:48:29;99004.44;;;18.78;47.25
37856;BME280;23694;43.274;26.924;2023-05-08T12:51:01;99003.31;;;18.45;47.67
37856;BME280;23694;43.274;26.924;2023-05-08T12:53:29;99000.94;;;18.59;47.49
37856;BME280;23694;43.274;26.924;2023-05-08T12:55:57;99000.88;;;18.69;46.97
37856;BME280;23694;43.274;26.924;2023-05-08T12:58:28;98989.75;;;18.65;46.68
37856;BME280;23694;43.274;26.924;2023-05-08T13:01:06;98999.75;;;18.18;48.51
37856;BME280;23694;43.274;26.924;2023-05-08T13:03:35;99005.13;;;18.44;47.29
37856;BME280;23694;43.274;26.924;2023-05-08T13:06:02;98997.78;;;18.56;47.85
37856;BME280;23694;43.274;26.924;2023-05-08T13:08:36;99009.47;;;18.63;47.34
37856;BME280;23694;43.274;26.924;2023-05-08T13:11:04;99011.25;;;17.91;48.31
37856;BME280;23694;43.274;26.924;2023-05-08T13:13:35;99006.94;;;17.63;48.83
37856;BME280;23694;43.274;26.924;2023-05-08T13:16:05;99020.03;;;17.55;49.67
37856;BME280;23694;43.274;26.924;2023-05-08T13:18:32;99016.38;;;17.75;49.73
37856;BME280;23694;43.274;26.924;2023-05-08T13:21:01;99014.38;;;18.04;48.75
37856;BME280;23694;43.274;26.924;2023-05-08T13:23:27;99023.31;;;17.39;50.16
37856;BME280;23694;43.274;26.924;2023-05-08T13:25:54;99029.22;;;17.33;50.72
37856;BME280;23694;43.274;26.924;2023-05-08T13:28:20;99030.25;;;17.50;49.86
37856;BME280;23694;43.274;26.924;2023-05-08T13:30:46;99023.47;;;17.00;51.30